Time;durP1;ratioP1;P1;durP2;ratioP2;P2;SDS_P1;SDS_P2;PMS_P1;PMS_P2;Temp;Humidity;BMP_temperature;BMP_pressure;BME280_temperature;BME280_humidity;BME280_pressure;Samples;Min_cycle;Max_cycle;Signal;HPM_P1;HPM_P2
2020/12/05 00:00:45;;;;;;;;;;;;;;;-4.24;74.95;102584.77;1867409;77;20269;-37
2020/12/05 00:03:12;;;;;;;;;;;;;;;-4.26;75.06;102580.81;1867221;77;20226;-36
2020/12/05 00:05:41;;;;;;;;;;;;;;;-4.31;75.18;102586.37;1867229;77;20134;-36
2020/12/05 00:08:10;;;;;;;;;;;;;;;-4.37;75.32;102570.58;1867555;77;20174;-34
2020/12/05 00:10:38;;;;;;;;;;;;;;;-4.42;75.55;102586.89;1867204;77;20140;-35
2020/12/05 00:13:06;;;;;;;;;;;;;;;-4.44;75.73;102589.72;1867652;77;20232;-35
2020/12/05 00:15:34;;;;;;;;;;;;;;;-4.47;75.94;102586.56;1867624;76;20279;-36
2020/12/05 00:18:01;;;;;;;;;;;;;;;-4.47;76.09;102592.06;1867220;77;20263;-37
2020/12/05 00:20:29;;;;;;;;;;;;;;;-4.50;76.25;102590.55;1867260;77;20434;-36
2020/12/05 00:22:57;;;;;;;;;;;;;;;-4.51;76.57;102596.44;1867222;76;20137;-32
2020/12/05 00:25:25;;;;;;;;;;;;;;;-4.53;76.81;102592.89;1867447;77;20176;-36
2020/12/05 00:27:53;;;;;;;;;;;;;;;-4.55;77.03;102586.37;1867560;77;20118;-36
2020/12/05 00:30:21;;;;;;;;;;;;;;;-4.56;77.22;102593.55;1867184;77;20116;-35
2020/12/05 00:32:49;;;;;;;;;;;;;;;-4.54;77.43;102588.55;1867324;77;20240;-34
2020/12/05 00:35:17;;;;;;;;;;;;;;;-4.53;77.59;102592.47;1867483;77;20264;-35
2020/12/05 00:37:45;;;;;;;;;;;;;;;-4.53;77.80;102588.63;1867596;77;20156;-35
2020/12/05 00:40:13;;;;;;;;;;;;;;;-4.53;77.96;102572.42;1867156;77;20121;-36
2020/12/05 00:42:41;;;;;;;;;;;;;;;-4.55;78.14;102582.53;1867473;77;20188;-35
2020/12/05 00:45:09;;;;;;;;;;;;;;;-4.56;78.30;102578.19;1867105;77;20148;-35
2020/12/05 00:47:37;;;;;;;;;;;;;;;-4.53;78.47;102574.98;1867231;77;20189;-35
2020/12/05 00:50:05;;;;;;;;;;;;;;;-4.53;78.62;102580.95;1867351;77;20121;-36
2020/12/05 00:52:33;;;;;;;;;;;;;;;-4.54;78.78;102571.91;1867226;77;20243;-36
2020/12/05 00:55:01;;;;;;;;;;;;;;;-4.55;78.88;102583.81;1867368;77;20461;-35
2020/12/05 00:57:29;;;;;;;;;;;;;;;-4.54;79.03;102583.43;1867480;77;20129;-36
2020/12/05 00:59:58;;;;;;;;;;;;;;;-4.53;79.20;102577.54;1867355;77;20213;-35
2020/12/05 01:02:26;;;;;;;;;;;;;;;-4.51;79.36;102579.80;1867306;77;20153;-35
2020/12/05 01:04:53;;;;;;;;;;;;;;;-4.51;79.54;102575.57;1866746;77;20133;-35
2020/12/05 01:07:25;;;;;;;;;;;;;;;-4.50;79.69;102567.12;1867170;76;20160;-35
2020/12/05 01:09:53;;;;;;;;;;;;;;;-4.49;79.88;102570.58;1867074;77;20311;-35
2020/12/05 01:12:21;;;;;;;;;;;;;;;-4.49;80.07;102567.62;1867220;77;20266;-34
2020/12/05 01:14:49;;;;;;;;;;;;;;;-4.49;80.31;102560.34;1867248;77;20132;-36
2020/12/05 01:17:18;;;;;;;;;;;;;;;-4.49;80.50;102568.02;1867151;77;20204;-35
2020/12/05 01:19:46;;;;;;;;;;;;;;;-4.50;80.72;102561.11;1873914;76;20145;-35
2020/12/05 01:22:13;;;;;;;;;;;;;;;-4.49;80.95;102553.94;1867393;76;20203;-34
2020/12/05 01:24:42;;;;;;;;;;;;;;;-4.48;81.16;102550.22;1867269;77;20434;-37
2020/12/05 01:27:10;;;;;;;;;;;;;;;-4.47;81.36;102559.69;1867270;77;20243;-35
2020/12/05 01:29:37;;;;;;;;;;;;;;;-4.45;81.53;102544.02;1867561;77;20151;-34
2020/12/05 01:32:05;;;;;;;;;;;;;;;-4.40;81.71;102553.73;1867367;76;20394;-36
2020/12/05 01:34:33;;;;;;;;;;;;;;;-4.38;81.78;102555.98;1867480;77;20133;-36
2020/12/05 01:37:02;;;;;;;;;;;;;;;-4.36;81.86;102557.90;1867180;77;20302;-35
2020/12/05 01:39:30;;;;;;;;;;;;;;;-4.33;81.91;102554.68;1867385;77;20239;-36
2020/12/05 01:41:57;;;;;;;;;;;;;;;-4.31;81.99;102564.63;1867258;77;20274;-36
2020/12/05 01:44:25;;;;;;;;;;;;;;;-4.30;82.10;102566.41;1867238;77;20128;-36
2020/12/05 01:46:52;;;;;;;;;;;;;;;-4.30;82.18;102569.86;1867136;77;20132;-36
2020/12/05 01:49:21;;;;;;;;;;;;;;;-4.28;82.20;102572.54;1867395;77;20144;-36
2020/12/05 01:51:48;;;;;;;;;;;;;;;-4.28;82.24;102573.44;1867191;77;20230;-35
2020/12/05 01:54:16;;;;;;;;;;;;;;;-4.27;82.25;102566.64;1867083;77;20152;-35
2020/12/05 01:56:44;;;;;;;;;;;;;;;-4.26;82.20;102579.53;1867177;77;20119;-36
2020/12/05 01:59:12;;;;;;;;;;;;;;;-4.27;82.11;102565.36;1867313;77;20458;-36
2020/12/05 02:01:40;;;;;;;;;;;;;;;-4.27;81.95;102573.94;1867305;77;20479;-35
2020/12/05 02:04:08;;;;;;;;;;;;;;;-4.25;81.83;102578.76;1867318;77;20459;-36
2020/12/05 02:06:39;;;;;;;;;;;;;;;-4.23;81.72;102564.80;1867236;77;20277;-35
2020/12/05 02:09:14;;;;;;;;;;;;;;;-4.22;81.58;102578.10;1867335;77;20248;-35
2020/12/05 02:11:46;;;;;;;;;;;;;;;-4.24;81.42;102579.27;1860679;77;20165;-36
2020/12/05 02:14:14;;;;;;;;;;;;;;;-4.25;81.33;102568.52;1863627;77;20142;-36
2020/12/05 02:16:42;;;;;;;;;;;;;;;-4.22;81.25;102574.27;1867393;77;20528;-35
2020/12/05 02:19:12;;;;;;;;;;;;;;;-4.21;81.14;102568.37;1867591;77;20137;-36
2020/12/05 02:21:40;;;;;;;;;;;;;;;-4.21;81.08;102559.41;1867445;77;20229;-35
2020/12/05 02:26:51;;;;;;;;;;;;;;;-4.11;81.03;102557.99;1918328;74;20604;-35
2020/12/05 02:29:19;;;;;;;;;;;;;;;-4.14;80.98;102557.41;1877932;75;20506;-35
2020/12/05 02:31:46;;;;;;;;;;;;;;;-4.11;80.89;102545.19;1895507;75;20195;-35
2020/12/05 02:34:15;;;;;;;;;;;;;;;-4.11;80.79;102565.28;1903028;75;20179;-44
2020/12/05 02:36:42;;;;;;;;;;;;;;;-4.08;80.69;102581.28;1903348;75;20144;-36
2020/12/05 02:39:10;;;;;;;;;;;;;;;-4.06;80.62;102575.85;1903235;75;20144;-36
2020/12/05 02:41:39;;;;;;;;;;;;;;;-4.05;80.61;102578.53;1903278;75;20390;-36
2020/12/05 02:44:06;;;;;;;;;;;;;;;-4.01;80.65;102586.06;1902888;75;20180;-36
2020/12/05 02:46:34;;;;;;;;;;;;;;;-3.98;80.70;102592.67;1903214;75;20446;-36
2020/12/05 02:49:02;;;;;;;;;;;;;;;-3.96;80.75;102579.59;1871444;75;20192;-35
2020/12/05 02:51:29;;;;;;;;;;;;;;;-3.96;80.76;102587.28;1868053;77;20151;-35
2020/12/05 02:53:58;;;;;;;;;;;;;;;-3.98;80.66;102588.83;1868012;77;20176;-36
2020/12/05 02:56:26;;;;;;;;;;;;;;;-4.01;80.62;102583.50;1868211;77;20298;-36
2020/12/05 02:58:55;;;;;;;;;;;;;;;-4.04;80.47;102584.16;1868241;77;20125;-35
2020/12/05 03:01:23;;;;;;;;;;;;;;;-4.08;80.36;102588.58;1867862;77;20132;-36
2020/12/05 03:03:50;;;;;;;;;;;;;;;-4.10;80.24;102590.52;1868180;77;20132;-35
2020/12/05 03:06:18;;;;;;;;;;;;;;;-4.15;80.17;102600.44;1867996;77;20172;-36
2020/12/05 03:08:46;;;;;;;;;;;;;;;-4.17;80.14;102597.24;1868095;76;20172;-35
2020/12/05 03:11:14;;;;;;;;;;;;;;;-4.18;80.07;102598.91;1867665;77;20175;-36
2020/12/05 03:13:41;;;;;;;;;;;;;;;-4.21;79.90;102594.87;1868156;77;20180;-36
2020/12/05 03:16:09;;;;;;;;;;;;;;;-4.25;79.83;102589.39;1868043;77;20160;-36
2020/12/05 03:18:37;;;;;;;;;;;;;;;-4.27;79.88;102589.69;1867984;77;20121;-35
2020/12/05 03:21:05;;;;;;;;;;;;;;;-4.27;80.01;102614.02;1867967;77;20151;-37
2020/12/05 03:23:32;;;;;;;;;;;;;;;-4.28;79.99;102608.00;1868094;75;20236;-36
2020/12/05 03:26:00;;;;;;;;;;;;;;;-4.31;79.89;102606.86;1868196;77;20375;-35
2020/12/05 03:28:28;;;;;;;;;;;;;;;-4.34;79.90;102611.77;1868011;76;20160;-37
2020/12/05 03:30:56;;;;;;;;;;;;;;;-4.34;79.89;102605.38;1868052;77;20414;-37
2020/12/05 03:33:25;;;;;;;;;;;;;;;-4.35;79.82;102618.95;1868218;76;20149;-35
2020/12/05 03:35:54;;;;;;;;;;;;;;;-4.38;79.77;102607.19;1868004;77;20452;-35
2020/12/05 03:38:21;;;;;;;;;;;;;;;-4.41;79.72;102611.71;1867566;77;20462;-35
2020/12/05 03:40:49;;;;;;;;;;;;;;;-4.42;79.79;102611.20;1867432;77;20243;-36
2020/12/05 03:43:16;;;;;;;;;;;;;;;-4.42;79.92;102609.53;1867591;77;20199;-34
2020/12/05 03:45:44;;;;;;;;;;;;;;;-4.41;80.12;102600.19;1867266;76;20175;-36
2020/12/05 03:48:12;;;;;;;;;;;;;;;-4.42;80.26;102606.98;1867380;77;20149;-37
2020/12/05 03:50:40;;;;;;;;;;;;;;;-4.44;80.28;102598.67;1867240;76;20152;-34
2020/12/05 03:53:08;;;;;;;;;;;;;;;-4.48;80.22;102600.13;1867230;77;20219;-36
2020/12/05 03:55:36;;;;;;;;;;;;;;;-4.54;80.18;102611.58;1867367;77;20223;-35
2020/12/05 03:58:04;;;;;;;;;;;;;;;-4.61;80.15;102599.99;1867742;77;20426;-34
2020/12/05 04:00:32;;;;;;;;;;;;;;;-4.66;80.19;102614.51;1867335;77;20124;-35
2020/12/05 04:02:59;;;;;;;;;;;;;;;-4.71;80.31;102616.70;1867430;77;20470;-36
2020/12/05 04:05:27;;;;;;;;;;;;;;;-4.76;80.50;102612.91;1867460;77;20271;-34
2020/12/05 04:07:54;;;;;;;;;;;;;;;-4.78;80.68;102613.55;1867498;77;20160;-36
2020/12/05 04:10:22;;;;;;;;;;;;;;;-4.80;80.89;102624.98;1867234;77;20406;-35
2020/12/05 04:12:51;;;;;;;;;;;;;;;-4.83;81.01;102613.22;1867344;76;20182;-35
2020/12/05 04:15:19;;;;;;;;;;;;;;;-4.86;81.05;102619.41;1867098;77;20230;-35
2020/12/05 04:17:46;;;;;;;;;;;;;;;-4.91;81.04;102622.86;1867488;75;20243;-36
2020/12/05 04:20:14;;;;;;;;;;;;;;;-4.97;80.94;102622.78;1867447;77;20284;-35
2020/12/05 04:22:42;;;;;;;;;;;;;;;-5.04;80.78;102632.03;1867477;77;20272;-36
2020/12/05 04:25:10;;;;;;;;;;;;;;;-5.10;80.73;102646.52;1867463;77;20268;-36
2020/12/05 04:27:37;;;;;;;;;;;;;;;-5.16;80.54;102637.48;1867169;77;20182;-35
2020/12/05 04:30:05;;;;;;;;;;;;;;;-5.23;80.27;102642.12;1867313;77;20226;-36
2020/12/05 04:32:33;;;;;;;;;;;;;;;-5.29;80.16;102648.05;1867224;77;20130;-36
2020/12/05 04:35:00;;;;;;;;;;;;;;;-5.35;80.07;102645.40;1867477;77;20246;-37
2020/12/05 04:37:28;;;;;;;;;;;;;;;-5.44;80.06;102644.67;1867330;77;20433;-36
2020/12/05 04:39:56;;;;;;;;;;;;;;;-5.53;79.93;102633.36;1867243;77;20285;-37
2020/12/05 04:42:24;;;;;;;;;;;;;;;-5.60;79.63;102640.03;1867476;77;20154;-36
2020/12/05 04:44:53;;;;;;;;;;;;;;;-5.67;79.37;102653.98;1867355;77;20150;-36
2020/12/05 04:47:20;;;;;;;;;;;;;;;-5.73;79.14;102650.94;1867115;77;20178;-36
2020/12/05 04:49:49;;;;;;;;;;;;;;;-5.79;79.10;102655.56;1872440;75;20148;-36
2020/12/05 04:52:23;;;;;;;;;;;;;;;-5.85;79.17;102656.73;1867336;76;20191;-36
2020/12/05 04:54:52;;;;;;;;;;;;;;;-5.91;79.29;102655.00;1867164;77;20140;-36
2020/12/05 04:57:24;;;;;;;;;;;;;;;-5.96;79.30;102658.44;1867449;76;20395;-36
2020/12/05 04:59:53;;;;;;;;;;;;;;;-6.04;79.04;102660.36;1867244;77;20161;-37
2020/12/05 05:02:24;;;;;;;;;;;;;;;-6.11;78.97;102665.77;1867456;77;20133;-36
2020/12/05 05:04:52;;;;;;;;;;;;;;;-6.18;78.92;102664.76;1867232;77;20160;-36
2020/12/05 05:07:20;;;;;;;;;;;;;;;-6.25;78.86;102667.58;1866877;77;20195;-36
2020/12/05 05:09:51;;;;;;;;;;;;;;;-6.33;78.59;102663.49;1866620;77;20126;-35
2020/12/05 05:12:25;;;;;;;;;;;;;;;-6.42;78.25;102678.03;1866916;77;20217;-37
2020/12/05 05:14:54;;;;;;;;;;;;;;;-6.51;77.96;102676.02;1867157;77;20169;-37
2020/12/05 05:17:21;;;;;;;;;;;;;;;-6.61;77.60;102684.55;1866839;77;20252;-36
2020/12/05 05:19:49;;;;;;;;;;;;;;;-6.68;77.37;102689.89;1867020;77;20217;-36
2020/12/05 05:22:21;;;;;;;;;;;;;;;-6.74;77.14;102688.48;1867322;77;20142;-36
2020/12/05 05:25:04;;;;;;;;;;;;;;;-6.79;76.98;102692.30;1867051;77;20387;-37
2020/12/05 05:27:32;;;;;;;;;;;;;;;-6.82;76.87;102698.41;1866601;77;20178;-36
2020/12/05 05:30:12;;;;;;;;;;;;;;;-6.88;76.76;102698.41;1866905;75;20126;-37
2020/12/05 05:32:48;;;;;;;;;;;;;;;-6.92;76.67;102699.30;1867304;77;20412;-36
2020/12/05 05:35:15;;;;;;;;;;;;;;;-6.94;76.61;102699.54;1867329;75;21374;-38
2020/12/05 05:37:43;;;;;;;;;;;;;;;-6.96;76.63;102693.06;1902048;75;20224;-36
2020/12/05 05:40:13;;;;;;;;;;;;;;;-6.99;76.58;102690.23;1878604;75;20156;-36
2020/12/05 05:42:41;;;;;;;;;;;;;;;-7.01;76.57;102705.77;1867396;77;20172;-37
2020/12/05 05:45:20;;;;;;;;;;;;;;;-7.03;76.61;102694.58;1871699;75;20118;-37
2020/12/05 05:47:49;;;;;;;;;;;;;;;-7.02;76.63;102698.88;1867270;77;20135;-38
2020/12/05 05:50:24;;;;;;;;;;;;;;;-7.04;76.62;102696.61;1867009;75;20142;-37
2020/12/05 05:53:00;;;;;;;;;;;;;;;-7.05;76.60;102692.64;1867759;75;20164;-37
2020/12/05 05:55:48;;;;;;;;;;;;;;;-7.06;76.66;102710.86;1867300;75;20279;-37
2020/12/05 05:58:17;;;;;;;;;;;;;;;-7.06;76.70;102709.97;1867097;77;20603;-37
2020/12/05 06:00:46;;;;;;;;;;;;;;;-7.07;76.65;102708.17;1866993;77;20172;-38
2020/12/05 06:03:28;;;;;;;;;;;;;;;-7.08;76.62;102710.20;1866799;77;20168;-38
2020/12/05 06:05:58;;;;;;;;;;;;;;;-7.07;76.58;102715.44;1867592;75;20178;-37
2020/12/05 06:08:27;;;;;;;;;;;;;;;-7.07;76.51;102714.55;1869412;75;20227;-37
2020/12/05 06:10:59;;;;;;;;;;;;;;;-7.07;76.46;102719.27;1867219;76;20172;-38
2020/12/05 06:13:28;;;;;;;;;;;;;;;-7.06;76.40;102725.26;1868994;75;20182;-37
2020/12/05 06:15:57;;;;;;;;;;;;;;;-7.04;76.38;102722.09;1866800;75;20445;-37
2020/12/05 06:18:27;;;;;;;;;;;;;;;-7.05;76.36;102726.67;1874222;76;20184;-37
2020/12/05 06:20:56;;;;;;;;;;;;;;;-7.03;76.30;102729.36;1848349;75;20124;-37
2020/12/05 06:26:50;;;;;;;;;;;;;;;-7.02;75.86;102730.74;1909787;74;20193;-38
2020/12/05 06:29:18;;;;;;;;;;;;;;;-7.06;75.71;102736.73;1817400;77;20155;-38
2020/12/05 06:31:46;;;;;;;;;;;;;;;-7.04;75.59;102746.31;1864399;77;20284;-36
2020/12/05 06:34:42;;;;;;;;;;;;;;;-7.03;75.43;102748.09;1867840;77;20178;-41
2020/12/05 06:37:15;;;;;;;;;;;;;;;-7.05;75.06;102746.17;1834679;77;20122;-39
2020/12/05 06:39:43;;;;;;;;;;;;;;;-7.09;74.68;102742.85;1863202;77;20172;-37
2020/12/05 06:42:19;;;;;;;;;;;;;;;-7.11;74.56;102737.62;1826630;75;20195;-38
2020/12/05 06:44:47;;;;;;;;;;;;;;;-7.11;74.52;102747.81;1867809;77;20467;-36
2020/12/05 06:47:23;;;;;;;;;;;;;;;-7.07;74.57;102742.20;1868101;77;20396;-40
2020/12/05 06:49:52;;;;;;;;;;;;;;;-7.03;74.50;102737.91;1902422;75;20136;-42
2020/12/05 06:52:26;;;;;;;;;;;;;;;-6.99;74.35;102729.75;1895952;75;20197;-37
2020/12/05 06:54:57;;;;;;;;;;;;;;;-6.99;74.13;102723.38;1868588;75;20127;-38
2020/12/05 06:57:27;;;;;;;;;;;;;;;-6.96;74.00;102731.30;1869139;75;20170;-37
2020/12/05 07:00:24;;;;;;;;;;;;;;;-6.92;73.68;102726.06;1868486;75;20174;-37
2020/12/05 07:02:57;;;;;;;;;;;;;;;-6.92;73.49;102726.97;1868057;77;20158;-38
2020/12/05 07:05:25;;;;;;;;;;;;;;;-6.88;73.35;102730.66;1871693;75;20461;-39
2020/12/05 07:07:56;;;;;;;;;;;;;;;-6.81;73.23;102728.24;1902950;75;20180;-38
2020/12/05 07:10:46;;;;;;;;;;;;;;;-6.66;73.01;102743.58;1870838;75;20142;-38
2020/12/05 07:13:17;;;;;;;;;;;;;;;-6.53;72.63;102744.75;1875417;75;20326;-39
2020/12/05 07:15:44;;;;;;;;;;;;;;;-6.40;72.25;102745.41;1871431;75;20174;-39
2020/12/05 07:18:21;;;;;;;;;;;;;;;-6.26;72.06;102739.80;1867951;77;20407;-38
2020/12/05 07:20:49;;;;;;;;;;;;;;;-6.12;71.60;102730.35;1865278;77;20154;-36
2020/12/05 07:23:17;;;;;;;;;;;;;;;-6.05;71.18;102739.03;1869556;75;20277;-38
2020/12/05 07:25:45;;;;;;;;;;;;;;;-5.99;70.90;102732.25;1867315;75;20123;-39
2020/12/05 07:28:13;;;;;;;;;;;;;;;-5.89;70.61;102740.27;1867444;75;20297;-38
2020/12/05 07:30:40;;;;;;;;;;;;;;;-5.77;70.19;102743.78;1880554;75;20234;-38
2020/12/05 07:33:08;;;;;;;;;;;;;;;-5.66;69.79;102739.17;1884300;75;20374;-38
2020/12/05 07:35:36;;;;;;;;;;;;;;;-5.51;69.32;102722.92;1902386;75;20176;-38
2020/12/05 07:38:15;;;;;;;;;;;;;;;-5.44;68.68;102719.67;1899577;75;20248;-39
2020/12/05 07:40:42;;;;;;;;;;;;;;;-5.33;68.36;102730.38;1872667;75;20443;-39
2020/12/05 07:43:19;;;;;;;;;;;;;;;-5.12;67.94;102735.41;1878848;75;20241;-40
2020/12/05 07:45:51;;;;;;;;;;;;;;;-4.93;67.62;102711.39;1875423;75;20253;-38
2020/12/05 07:48:20;;;;;;;;;;;;;;;-4.77;66.67;102722.79;1873971;75;20147;-39
2020/12/05 07:50:48;;;;;;;;;;;;;;;-4.69;66.10;102729.02;1877757;75;20211;-39
2020/12/05 07:53:26;;;;;;;;;;;;;;;-4.59;65.60;102728.93;1867865;75;20269;-38
2020/12/05 07:55:55;;;;;;;;;;;;;;;-4.46;65.25;102720.12;1869800;75;20202;-39
2020/12/05 07:58:24;;;;;;;;;;;;;;;-4.31;64.71;102717.84;1873834;75;20247;-39
2020/12/05 08:00:53;;;;;;;;;;;;;;;-4.15;64.43;102711.83;1875851;75;20812;-39
2020/12/05 08:03:42;;;;;;;;;;;;;;;-3.95;63.62;102714.98;1839948;77;20220;-37
2020/12/05 08:06:25;;;;;;;;;;;;;;;-3.81;63.10;102718.17;1817386;78;20315;-51
2020/12/05 08:08:57;;;;;;;;;;;;;;;-3.64;62.54;102721.17;1743290;78;20237;-39
2020/12/05 08:11:25;;;;;;;;;;;;;;;-3.44;61.35;102709.79;1816702;78;20188;-45
2020/12/05 08:13:52;;;;;;;;;;;;;;;-3.44;60.62;102717.48;1829082;77;20265;-41
2020/12/05 08:16:21;;;;;;;;;;;;;;;-3.42;60.03;102713.37;1795647;77;20297;-42
2020/12/05 08:18:49;;;;;;;;;;;;;;;-3.45;59.43;102705.83;1816118;78;20198;-40
2020/12/05 08:21:17;;;;;;;;;;;;;;;-3.58;59.01;102706.62;1815399;78;20175;-39
2020/12/05 08:23:45;;;;;;;;;;;;;;;-3.64;58.75;102699.77;1771900;78;20167;-39
2020/12/05 08:26:14;;;;;;;;;;;;;;;-3.64;58.58;102698.10;1815155;78;20813;-38
2020/12/05 08:28:42;;;;;;;;;;;;;;;-3.61;58.20;102689.76;1814083;78;20166;-39
2020/12/05 08:31:11;;;;;;;;;;;;;;;-3.56;58.07;102702.50;1812554;78;20196;-37
2020/12/05 08:33:49;;;;;;;;;;;;;;;-3.44;57.75;102701.20;1816232;78;20212;-39
2020/12/05 08:36:31;;;;;;;;;;;;;;;-3.35;57.35;102694.19;1813531;78;20135;-38
2020/12/05 08:39:05;;;;;;;;;;;;;;;-3.42;56.95;102700.94;1811323;78;20143;-37
2020/12/05 08:41:50;;;;;;;;;;;;;;;-3.52;56.64;102703.22;1820215;78;20172;-40
2020/12/05 08:44:20;;;;;;;;;;;;;;;-3.57;56.85;102694.31;1793527;78;20569;-39
2020/12/05 08:47:08;;;;;;;;;;;;;;;-3.45;57.38;102694.29;1809998;78;20201;-40
2020/12/05 08:49:43;;;;;;;;;;;;;;;-3.36;57.07;102684.31;1815400;78;20182;-38
2020/12/05 08:52:11;;;;;;;;;;;;;;;-3.32;56.69;102688.87;1817847;78;20184;-41
2020/12/05 08:54:51;;;;;;;;;;;;;;;-3.22;56.81;102686.16;1813345;78;20209;-38
2020/12/05 08:57:19;;;;;;;;;;;;;;;-3.09;56.89;102671.66;1820145;78;20474;-38
2020/12/05 08:59:52;;;;;;;;;;;;;;;-2.99;56.80;102674.05;1817570;78;20212;-39
2020/12/05 09:02:20;;;;;;;;;;;;;;;-2.87;55.86;102664.63;1811334;78;20259;-39
2020/12/05 09:04:48;;;;;;;;;;;;;;;-2.84;54.80;102677.30;1813849;78;20148;-37
2020/12/05 09:07:20;;;;;;;;;;;;;;;-2.85;54.36;102669.49;1821847;78;20271;-39
2020/12/05 09:09:47;;;;;;;;;;;;;;;-2.86;54.24;102664.75;1811800;78;20187;-38
2020/12/05 09:12:16;;;;;;;;;;;;;;;-2.75;54.02;102668.42;1812061;78;20211;-38
2020/12/05 09:14:48;;;;;;;;;;;;;;;-2.69;53.56;102674.02;1815709;78;20424;-40
2020/12/05 09:17:25;;;;;;;;;;;;;;;-2.64;53.35;102672.64;1815727;78;20302;-44
2020/12/05 09:19:58;;;;;;;;;;;;;;;-2.56;53.19;102672.35;1815604;78;20376;-38
2020/12/05 09:22:32;;;;;;;;;;;;;;;-2.54;53.14;102663.47;1798331;78;20215;-39
2020/12/05 09:25:05;;;;;;;;;;;;;;;-2.56;52.88;102659.52;1828467;77;20932;-36
2020/12/05 09:27:37;;;;;;;;;;;;;;;-2.63;52.84;102663.77;1814090;78;20131;-38
2020/12/05 09:30:07;;;;;;;;;;;;;;;-2.68;53.49;102665.50;1811046;78;20120;-39
2020/12/05 09:32:45;;;;;;;;;;;;;;;-2.67;53.96;102661.75;1791180;78;20548;-39
2020/12/05 09:35:20;;;;;;;;;;;;;;;-2.63;54.09;102670.19;1808867;78;20247;-37
2020/12/05 09:37:50;;;;;;;;;;;;;;;-2.55;54.14;102670.67;1780643;78;20210;-37
2020/12/05 09:40:19;;;;;;;;;;;;;;;-2.55;53.73;102665.15;1811278;78;20464;-38
2020/12/05 09:42:47;;;;;;;;;;;;;;;-2.53;53.38;102666.55;1807138;78;20199;-39
2020/12/05 09:45:16;;;;;;;;;;;;;;;-2.48;52.94;102670.30;1810553;78;20162;-39
2020/12/05 09:47:48;;;;;;;;;;;;;;;-2.47;53.00;102670.80;1790665;78;20172;-40
2020/12/05 09:50:16;;;;;;;;;;;;;;;-2.48;53.22;102674.16;1783730;78;20206;-40
2020/12/05 09:52:46;;;;;;;;;;;;;;;-2.47;53.32;102665.67;1799626;78;20132;-40
2020/12/05 09:55:21;;;;;;;;;;;;;;;-2.46;52.97;102671.31;1753298;78;20264;-38
2020/12/05 09:57:49;;;;;;;;;;;;;;;-2.45;52.52;102672.70;1808601;78;20176;-39
2020/12/05 10:00:16;;;;;;;;;;;;;;;-2.37;52.95;102668.48;1806806;78;20305;-38
2020/12/05 10:02:44;;;;;;;;;;;;;;;-2.31;53.03;102672.73;1806426;78;20259;-37
2020/12/05 10:05:13;;;;;;;;;;;;;;;-2.30;53.05;102666.42;1811326;78;20545;-39
2020/12/05 10:07:41;;;;;;;;;;;;;;;-2.24;52.82;102665.94;1810696;78;20656;-39
2020/12/05 10:10:10;;;;;;;;;;;;;;;-2.20;52.69;102659.81;1805104;78;20166;-39
2020/12/05 10:12:38;;;;;;;;;;;;;;;-2.17;52.49;102661.31;1807500;78;20206;-41
2020/12/05 10:15:06;;;;;;;;;;;;;;;-2.17;52.52;102657.45;1804793;78;20134;-40
2020/12/05 10:17:33;;;;;;;;;;;;;;;-2.11;52.14;102652.72;1809825;78;20196;-42
2020/12/05 10:20:01;;;;;;;;;;;;;;;-1.98;51.68;102653.52;1809725;78;20186;-42
2020/12/05 10:22:32;;;;;;;;;;;;;;;-1.83;51.72;102661.80;1819176;78;20139;-39
2020/12/05 10:26:56;;;;;;;;;;;;;;;-1.55;50.78;102646.47;1900382;74;20156;-41
2020/12/05 10:29:24;;;;;;;;;;;;;;;-1.46;50.65;102655.17;1860521;75;20523;-40
2020/12/05 10:31:53;;;;;;;;;;;;;;;-1.41;50.32;102644.38;1869721;75;20205;-39
2020/12/05 10:34:21;;;;;;;;;;;;;;;-1.35;50.01;102646.44;1869557;75;20178;-39
2020/12/05 10:36:50;;;;;;;;;;;;;;;-1.34;49.48;102655.55;1876195;75;20394;-39
2020/12/05 10:39:18;;;;;;;;;;;;;;;-1.28;49.45;102660.17;1875519;75;20292;-38
2020/12/05 10:41:48;;;;;;;;;;;;;;;-1.19;49.46;102656.91;1873666;75;20173;-39
2020/12/05 10:44:17;;;;;;;;;;;;;;;-1.17;48.53;102652.72;1871082;75;20175;-38
2020/12/05 10:46:49;;;;;;;;;;;;;;;-1.19;48.58;102651.76;1877556;75;20186;-41
2020/12/05 10:49:17;;;;;;;;;;;;;;;-1.22;48.65;102657.98;1868899;75;20132;-41
2020/12/05 10:51:46;;;;;;;;;;;;;;;-1.23;48.88;102657.48;1867537;75;20196;-41
2020/12/05 10:54:13;;;;;;;;;;;;;;;-1.11;49.18;102667.25;1869000;75;20665;-40
2020/12/05 10:56:41;;;;;;;;;;;;;;;-0.94;48.19;102650.28;1872443;75;20197;-41
2020/12/05 10:59:10;;;;;;;;;;;;;;;-0.93;48.07;102659.39;1871711;75;20280;-40
2020/12/05 11:01:41;;;;;;;;;;;;;;;-0.81;48.14;102651.52;1857968;75;20167;-42
2020/12/05 11:04:13;;;;;;;;;;;;;;;-0.67;47.27;102643.34;1833183;75;20211;-42
2020/12/05 11:06:41;;;;;;;;;;;;;;;-0.66;46.97;102650.27;1873070;75;20554;-40
2020/12/05 11:09:09;;;;;;;;;;;;;;;-0.65;46.99;102645.58;1871891;75;20300;-41
2020/12/05 11:11:40;;;;;;;;;;;;;;;-0.62;47.13;102636.77;1869953;75;20313;-42
2020/12/05 11:14:15;;;;;;;;;;;;;;;-0.64;46.90;102639.24;1854290;75;20330;-40
2020/12/05 11:17:05;;;;;;;;;;;;;;;-0.71;47.02;102642.25;1858971;75;20172;-41
2020/12/05 11:20:07;;;;;;;;;;;;;;;-0.67;47.02;102648.48;1863395;75;20146;-41
2020/12/05 11:22:41;;;;;;;;;;;;;;;-0.63;47.05;102635.88;1780698;75;20233;-41
2020/12/05 11:25:18;;;;;;;;;;;;;;;-0.59;46.68;102631.81;1858567;75;20209;-42
2020/12/05 11:27:46;;;;;;;;;;;;;;;-0.63;46.00;102635.88;1876271;75;20214;-41
2020/12/05 11:30:14;;;;;;;;;;;;;;;-0.70;45.80;102641.45;1868797;75;20194;-41
2020/12/05 11:32:41;;;;;;;;;;;;;;;-0.68;45.79;102641.16;1870508;75;20296;-40
2020/12/05 11:35:09;;;;;;;;;;;;;;;-0.64;45.67;102639.24;1829455;77;20191;-41
2020/12/05 11:37:36;;;;;;;;;;;;;;;-0.69;45.84;102653.54;1867471;75;20186;-41
2020/12/05 11:40:04;;;;;;;;;;;;;;;-0.72;46.09;102644.33;1872988;75;20192;-45
2020/12/05 11:42:32;;;;;;;;;;;;;;;-0.73;45.72;102629.70;1868136;75;20129;-40
2020/12/05 11:45:04;;;;;;;;;;;;;;;-0.78;45.10;102646.53;1868049;75;20187;-42
2020/12/05 11:47:32;;;;;;;;;;;;;;;-0.83;45.15;102644.09;1870790;75;20179;-43
2020/12/05 11:50:01;;;;;;;;;;;;;;;-0.83;45.38;102648.84;1870972;75;20508;-41
2020/12/05 11:52:30;;;;;;;;;;;;;;;-0.75;45.52;102637.72;1867483;75;20188;-42
2020/12/05 11:54:57;;;;;;;;;;;;;;;-0.73;45.14;102651.59;1874925;75;20174;-41
2020/12/05 11:57:25;;;;;;;;;;;;;;;-0.75;44.96;102648.02;1875145;75;20160;-40
2020/12/05 11:59:55;;;;;;;;;;;;;;;-0.77;44.56;102643.17;1867820;75;20285;-40
2020/12/05 12:02:22;;;;;;;;;;;;;;;-0.83;44.77;102650.13;1871240;75;20304;-41
2020/12/05 12:04:51;;;;;;;;;;;;;;;-0.89;44.55;102656.20;1867083;75;20193;-40
2020/12/05 12:07:20;;;;;;;;;;;;;;;-0.95;44.55;102656.22;1868406;75;20133;-42
2020/12/05 12:09:50;;;;;;;;;;;;;;;-0.99;44.59;102659.02;1872197;75;20444;-42
2020/12/05 12:12:17;;;;;;;;;;;;;;;-0.99;44.71;102661.59;1867090;75;20452;-42
2020/12/05 12:14:46;;;;;;;;;;;;;;;-0.98;44.95;102658.20;1870055;75;20462;-42
2020/12/05 12:17:15;;;;;;;;;;;;;;;-0.96;45.08;102662.16;1871037;75;20227;-42
2020/12/05 12:19:43;;;;;;;;;;;;;;;-0.99;44.87;102665.45;1867998;75;20172;-41
2020/12/05 12:22:11;;;;;;;;;;;;;;;-1.05;44.82;102663.77;1870323;75;20269;-43
2020/12/05 12:24:39;;;;;;;;;;;;;;;-1.11;44.83;102667.25;1870743;75;20137;-42
2020/12/05 12:27:07;;;;;;;;;;;;;;;-1.16;44.70;102662.61;1869030;75;20189;-41
2020/12/05 12:29:35;;;;;;;;;;;;;;;-1.21;44.77;102670.95;1878555;75;20234;-42
2020/12/05 12:32:03;;;;;;;;;;;;;;;-1.25;44.90;102674.11;1869793;75;20128;-41
2020/12/05 12:34:31;;;;;;;;;;;;;;;-1.27;44.95;102675.72;1862275;75;20297;-41
2020/12/05 12:37:03;;;;;;;;;;;;;;;-1.31;45.16;102667.69;1867247;75;20400;-41
2020/12/05 12:39:28;;;;;;;;;;;;;;;-1.33;45.00;102670.19;1868747;75;20323;-40
2020/12/05 12:41:56;;;;;;;;;;;;;;;-1.33;44.86;102676.63;1868646;75;20197;-41
2020/12/05 12:44:27;;;;;;;;;;;;;;;-1.35;45.04;102687.20;1866452;75;20138;-41
2020/12/05 12:49:39;;;;;;;;;;;;;;;-1.38;44.84;102677.13;1874900;75;20269;-40
2020/12/05 12:52:07;;;;;;;;;;;;;;;-1.40;45.02;102675.74;1822642;75;20249;-40
2020/12/05 12:54:35;;;;;;;;;;;;;;;-1.40;45.28;102687.31;1873385;75;20240;-40
2020/12/05 12:57:05;;;;;;;;;;;;;;;-1.42;45.50;102690.17;1868470;75;20190;-39
2020/12/05 12:59:34;;;;;;;;;;;;;;;-1.46;45.76;102684.75;1869888;75;20213;-42